sensor_id;sensor_type;location;lat;lon;timestamp;temperature;humidity
2407;DHT22;37709;53.480;9.688;2022-09-01T00:00:01;9.00;99.90
2407;DHT22;37709;53.480;9.688;2022-09-01T00:02:32;8.90;99.90
2407;DHT22;37709;53.480;9.688;2022-09-01T00:05:00;8.80;99.90
2407;DHT22;37709;53.480;9.688;2022-09-01T00:07:29;8.70;99.90
2407;DHT22;37709;53.480;9.688;2022-09-01T00:09:58;8.70;99.90
2407;DHT22;37709;53.480;9.688;2022-09-01T00:12:26;8.70;99.90
2407;DHT22;37709;53.480;9.688;2022-09-01T00:14:54;8.70;99.90
2407;DHT22;37709;53.480;9.688;2022-09-01T00:17:21;8.70;99.90
2407;DHT22;37709;53.480;9.688;2022-09-01T00:19:49;8.70;99.90
2407;DHT22;37709;53.480;9.688;2022-09-01T00:22:16;8.60;99.90
2407;DHT22;37709;53.480;9.688;2022-09-01T00:24:44;8.70;99.90
2407;DHT22;37709;53.480;9.688;2022-09-01T00:27:11;8.60;99.90
2407;DHT22;37709;53.480;9.688;2022-09-01T00:29:39;8.70;99.90
2407;DHT22;37709;53.480;9.688;2022-09-01T00:32:11;8.70;99.90
2407;DHT22;37709;53.480;9.688;2022-09-01T00:34:39;8.60;99.90
2407;DHT22;37709;53.480;9.688;2022-09-01T00:37:07;8.50;99.90
2407;DHT22;37709;53.480;9.688;2022-09-01T00:39:34;8.50;99.90
2407;DHT22;37709;53.480;9.688;2022-09-01T00:42:02;8.50;99.90
2407;DHT22;37709;53.480;9.688;2022-09-01T00:44:29;8.40;99.90
2407;DHT22;37709;53.480;9.688;2022-09-01T00:46:58;8.50;99.90
2407;DHT22;37709;53.480;9.688;2022-09-01T00:49:42;8.50;99.90
2407;DHT22;37709;53.480;9.688;2022-09-01T00:52:19;8.50;99.90
2407;DHT22;37709;53.480;9.688;2022-09-01T00:54:51;8.40;99.90
2407;DHT22;37709;53.480;9.688;2022-09-01T00:57:20;8.40;99.90
2407;DHT22;37709;53.480;9.688;2022-09-01T00:59:56;8.40;99.90
2407;DHT22;37709;53.480;9.688;2022-09-01T01:02:24;8.40;99.90
2407;DHT22;37709;53.480;9.688;2022-09-01T01:04:52;8.30;99.90
2407;DHT22;37709;53.480;9.688;2022-09-01T01:07:23;8.30;99.90
2407;DHT22;37709;53.480;9.688;2022-09-01T01:09:50;8.20;99.90
2407;DHT22;37709;53.480;9.688;2022-09-01T01:12:18;8.10;99.90
2407;DHT22;37709;53.480;9.688;2022-09-01T01:14:48;8.10;99.90
2407;DHT22;37709;53.480;9.688;2022-09-01T01:17:20;8.10;99.90
2407;DHT22;37709;53.480;9.688;2022-09-01T01:19:56;8.10;99.90
2407;DHT22;37709;53.480;9.688;2022-09-01T01:25:57;8.10;99.90
2407;DHT22;37709;53.480;9.688;2022-09-01T01:28:33;8.10;99.90
2407;DHT22;37709;53.480;9.688;2022-09-01T01:31:06;8.10;99.90
2407;DHT22;37709;53.480;9.688;2022-09-01T01:33:41;8.20;99.90
2407;DHT22;37709;53.480;9.688;2022-09-01T01:36:17;8.20;99.90
2407;DHT22;37709;53.480;9.688;2022-09-01T01:38:48;8.20;99.90
2407;DHT22;37709;53.480;9.688;2022-09-01T01:41:17;8.20;99.90
2407;DHT22;37709;53.480;9.688;2022-09-01T01:43:48;8.20;99.90
2407;DHT22;37709;53.480;9.688;2022-09-01T01:46:18;8.10;99.90
2407;DHT22;37709;53.480;9.688;2022-09-01T01:48:49;8.20;99.90
2407;DHT22;37709;53.480;9.688;2022-09-01T01:51:20;8.20;99.90
2407;DHT22;37709;53.480;9.688;2022-09-01T01:53:51;8.30;99.90
2407;DHT22;37709;53.480;9.688;2022-09-01T01:56:20;8.20;99.90
2407;DHT22;37709;53.480;9.688;2022-09-01T01:58:53;8.10;99.90
2407;DHT22;37709;53.480;9.688;2022-09-01T02:01:27;8.10;99.90
2407;DHT22;37709;53.480;9.688;2022-09-01T02:03:58;8.00;99.90
2407;DHT22;37709;53.480;9.688;2022-09-01T02:06:27;8.00;99.90
2407;DHT22;37709;53.480;9.688;2022-09-01T02:08:57;8.00;99.90
2407;DHT22;37709;53.480;9.688;2022-09-01T02:11:29;8.00;99.90
2407;DHT22;37709;53.480;9.688;2022-09-01T02:14:00;7.90;99.90
2407;DHT22;37709;53.480;9.688;2022-09-01T02:16:29;7.80;99.90
2407;DHT22;37709;53.480;9.688;2022-09-01T02:19:01;7.80;99.90
2407;DHT22;37709;53.480;9.688;2022-09-01T02:21:29;7.80;99.90
2407;DHT22;37709;53.480;9.688;2022-09-01T02:23:59;7.80;99.90
2407;DHT22;37709;53.480;9.688;2022-09-01T02:26:39;7.70;99.90
2407;DHT22;37709;53.480;9.688;2022-09-01T02:29:12;7.70;99.90
2407;DHT22;37709;53.480;9.688;2022-09-01T02:31:47;7.70;99.90
2407;DHT22;37709;53.480;9.688;2022-09-01T02:34:16;7.80;99.90
2407;DHT22;37709;53.480;9.688;2022-09-01T02:36:47;7.80;99.90
2407;DHT22;37709;53.480;9.688;2022-09-01T02:39:26;7.80;99.90
2407;DHT22;37709;53.480;9.688;2022-09-01T02:41:54;7.80;99.90
2407;DHT22;37709;53.480;9.688;2022-09-01T02:44:25;7.70;99.90
2407;DHT22;37709;53.480;9.688;2022-09-01T02:46:54;7.70;99.90
2407;DHT22;37709;53.480;9.688;2022-09-01T02:49:24;7.70;99.90
2407;DHT22;37709;53.480;9.688;2022-09-01T02:51:58;7.70;99.90
2407;DHT22;37709;53.480;9.688;2022-09-01T02:54:30;7.80;99.90
2407;DHT22;37709;53.480;9.688;2022-09-01T02:56:59;7.70;99.90
2407;DHT22;37709;53.480;9.688;2022-09-01T02:59:28;7.50;99.90
2407;DHT22;37709;53.480;9.688;2022-09-01T03:02:00;7.50;99.90
2407;DHT22;37709;53.480;9.688;2022-09-01T03:04:28;7.60;99.90
2407;DHT22;37709;53.480;9.688;2022-09-01T03:07:04;7.60;99.90
2407;DHT22;37709;53.480;9.688;2022-09-01T03:09:32;7.60;99.90
2407;DHT22;37709;53.480;9.688;2022-09-01T03:12:02;7.60;99.90
2407;DHT22;37709;53.480;9.688;2022-09-01T03:14:30;7.60;99.90
2407;DHT22;37709;53.480;9.688;2022-09-01T03:16:58;7.70;99.90
2407;DHT22;37709;53.480;9.688;2022-09-01T03:19:26;7.60;99.90
2407;DHT22;37709;53.480;9.688;2022-09-01T03:21:58;7.60;99.90
2407;DHT22;37709;53.480;9.688;2022-09-01T03:24:29;7.60;99.90
2407;DHT22;37709;53.480;9.688;2022-09-01T03:26:56;7.60;99.90
2407;DHT22;37709;53.480;9.688;2022-09-01T03:29:25;7.60;99.90
2407;DHT22;37709;53.480;9.688;2022-09-01T03:31:53;7.50;99.90
2407;DHT22;37709;53.480;9.688;2022-09-01T03:34:22;7.50;99.90
2407;DHT22;37709;53.480;9.688;2022-09-01T03:36:53;7.40;99.90
2407;DHT22;37709;53.480;9.688;2022-09-01T03:39:26;7.40;99.90
2407;DHT22;37709;53.480;9.688;2022-09-01T03:41:54;7.40;99.90
2407;DHT22;37709;53.480;9.688;2022-09-01T03:44:24;7.40;99.90
2407;DHT22;37709;53.480;9.688;2022-09-01T03:46:52;7.40;99.90
2407;DHT22;37709;53.480;9.688;2022-09-01T03:49:20;7.30;99.90
2407;DHT22;37709;53.480;9.688;2022-09-01T03:51:55;7.30;99.90
2407;DHT22;37709;53.480;9.688;2022-09-01T03:54:24;7.20;99.90
2407;DHT22;37709;53.480;9.688;2022-09-01T03:56:56;7.20;99.90
2407;DHT22;37709;53.480;9.688;2022-09-01T03:59:26;7.20;99.90
2407;DHT22;37709;53.480;9.688;2022-09-01T04:01:57;7.20;99.90
2407;DHT22;37709;53.480;9.688;2022-09-01T04:04:26;7.10;99.90
2407;DHT22;37709;53.480;9.688;2022-09-01T04:06:54;7.10;99.90
2407;DHT22;37709;53.480;9.688;2022-09-01T04:09:21;7.10;99.90
2407;DHT22;37709;53.480;9.688;2022-09-01T04:11:49;7.10;99.90
2407;DHT22;37709;53.480;9.688;2022-09-01T04:14:19;7.10;99.90
2407;DHT22;37709;53.480;9.688;2022-09-01T04:16:48;7.20;99.90
2407;DHT22;37709;53.480;9.688;2022-09-01T04:19:36;7.10;99.90
2407;DHT22;37709;53.480;9.688;2022-09-01T04:22:06;7.20;99.90
2407;DHT22;37709;53.480;9.688;2022-09-01T04:24:42;7.20;99.90
2407;DHT22;37709;53.480;9.688;2022-09-01T04:27:13;7.10;99.90
2407;DHT22;37709;53.480;9.688;2022-09-01T04:29:44;7.10;99.90
2407;DHT22;37709;53.480;9.688;2022-09-01T04:32:13;7.10;99.90
2407;DHT22;37709;53.480;9.688;2022-09-01T04:34:45;7.10;99.90
2407;DHT22;37709;53.480;9.688;2022-09-01T04:37:17;7.10;99.90
2407;DHT22;37709;53.480;9.688;2022-09-01T04:39:51;7.10;99.90
2407;DHT22;37709;53.480;9.688;2022-09-01T04:42:25;7.20;99.90
2407;DHT22;37709;53.480;9.688;2022-09-01T04:44:55;7.20;99.90
2407;DHT22;37709;53.480;9.688;2022-09-01T04:47:25;7.20;99.90
2407;DHT22;37709;53.480;9.688;2022-09-01T04:50:06;7.20;99.90
2407;DHT22;37709;53.480;9.688;2022-09-01T04:53:07;7.20;99.90
2407;DHT22;37709;53.480;9.688;2022-09-01T04:55:41;7.10;99.90
2407;DHT22;37709;53.480;9.688;2022-09-01T04:58:15;7.10;99.90
2407;DHT22;37709;53.480;9.688;2022-09-01T05:00:46;7.10;99.90
2407;DHT22;37709;53.480;9.688;2022-09-01T05:03:18;7.20;99.90
2407;DHT22;37709;53.480;9.688;2022-09-01T05:06:00;7.20;99.90
2407;DHT22;37709;53.480;9.688;2022-09-01T05:08:30;7.10;99.90
2407;DHT22;37709;53.480;9.688;2022-09-01T05:11:04;7.10;99.90
2407;DHT22;37709;53.480;9.688;2022-09-01T05:13:47;7.10;99.90
2407;DHT22;37709;53.480;9.688;2022-09-01T05:16:18;7.20;99.90
2407;DHT22;37709;53.480;9.688;2022-09-01T05:18:54;7.30;99.90
2407;DHT22;37709;53.480;9.688;2022-09-01T05:21:31;7.30;99.90
2407;DHT22;37709;53.480;9.688;2022-09-01T05:23:59;7.40;99.90
2407;DHT22;37709;53.480;9.688;2022-09-01T05:26:30;7.40;99.90
2407;DHT22;37709;53.480;9.688;2022-09-01T05:29:03;7.50;99.90
2407;DHT22;37709;53.480;9.688;2022-09-01T05:31:32;7.50;99.90
2407;DHT22;37709;53.480;9.688;2022-09-01T05:34:04;7.60;99.90
2407;DHT22;37709;53.480;9.688;2022-09-01T05:36:37;7.70;99.90
2407;DHT22;37709;53.480;9.688;2022-09-01T05:39:09;7.80;99.90
2407;DHT22;37709;53.480;9.688;2022-09-01T05:41:39;7.90;99.90
2407;DHT22;37709;53.480;9.688;2022-09-01T05:44:08;8.00;99.90
2407;DHT22;37709;53.480;9.688;2022-09-01T05:46:38;8.10;99.90
2407;DHT22;37709;53.480;9.688;2022-09-01T05:49:06;8.20;99.90
2407;DHT22;37709;53.480;9.688;2022-09-01T05:51:41;8.30;99.90
2407;DHT22;37709;53.480;9.688;2022-09-01T05:54:14;8.50;99.90
2407;DHT22;37709;53.480;9.688;2022-09-01T05:56:43;8.60;99.90
2407;DHT22;37709;53.480;9.688;2022-09-01T05:59:15;8.80;99.90
2407;DHT22;37709;53.480;9.688;2022-09-01T06:01:57;8.90;99.90
2407;DHT22;37709;53.480;9.688;2022-09-01T06:04:25;9.10;99.90
2407;DHT22;37709;53.480;9.688;2022-09-01T06:06:56;9.20;99.90
2407;DHT22;37709;53.480;9.688;2022-09-01T06:09:38;9.40;99.90
2407;DHT22;37709;53.480;9.688;2022-09-01T06:12:06;9.50;99.90
2407;DHT22;37709;53.480;9.688;2022-09-01T06:14:35;9.70;99.90
2407;DHT22;37709;53.480;9.688;2022-09-01T06:17:03;9.80;99.90
2407;DHT22;37709;53.480;9.688;2022-09-01T06:19:30;10.10;99.90
2407;DHT22;37709;53.480;9.688;2022-09-01T06:22:04;10.30;99.90
2407;DHT22;37709;53.480;9.688;2022-09-01T06:24:31;10.40;99.90
2407;DHT22;37709;53.480;9.688;2022-09-01T06:27:00;10.60;99.90
2407;DHT22;37709;53.480;9.688;2022-09-01T06:29:27;10.80;99.90
2407;DHT22;37709;53.480;9.688;2022-09-01T06:31:57;11.00;99.90
2407;DHT22;37709;53.480;9.688;2022-09-01T06:34:25;11.30;99.90
2407;DHT22;37709;53.480;9.688;2022-09-01T06:36:54;11.50;99.90
2407;DHT22;37709;53.480;9.688;2022-09-01T06:39:21;11.80;99.90
2407;DHT22;37709;53.480;9.688;2022-09-01T06:41:52;12.10;99.90
2407;DHT22;37709;53.480;9.688;2022-09-01T06:44:26;12.40;99.90
2407;DHT22;37709;53.480;9.688;2022-09-01T06:46:59;12.90;99.90
2407;DHT22;37709;53.480;9.688;2022-09-01T06:49:27;13.60;99.90
2407;DHT22;37709;53.480;9.688;2022-09-01T06:52:04;14.50;99.90
2407;DHT22;37709;53.480;9.688;2022-09-01T06:54:32;15.80;99.90
2407;DHT22;37709;53.480;9.688;2022-09-01T06:57:02;17.00;99.90
2407;DHT22;37709;53.480;9.688;2022-09-01T06:59:50;18.20;99.90
2407;DHT22;37709;53.480;9.688;2022-09-01T07:02:21;19.20;99.90
2407;DHT22;37709;53.480;9.688;2022-09-01T07:05:13;19.90;99.90
2407;DHT22;37709;53.480;9.688;2022-09-01T07:08:09;20.70;99.90
2407;DHT22;37709;53.480;9.688;2022-09-01T07:10:56;21.40;99.90
2407;DHT22;37709;53.480;9.688;2022-09-01T07:13:45;21.90;99.90
2407;DHT22;37709;53.480;9.688;2022-09-01T07:16:36;22.20;99.90
2407;DHT22;37709;53.480;9.688;2022-09-01T07:19:20;22.50;99.90
2407;DHT22;37709;53.480;9.688;2022-09-01T07:21:54;22.90;99.90
2407;DHT22;37709;53.480;9.688;2022-09-01T07:24:44;23.20;99.90
2407;DHT22;37709;53.480;9.688;2022-09-01T07:27:48;23.40;99.90
2407;DHT22;37709;53.480;9.688;2022-09-01T07:30:20;23.90;99.90
2407;DHT22;37709;53.480;9.688;2022-09-01T07:32:50;24.00;99.90
2407;DHT22;37709;53.480;9.688;2022-09-01T07:35:21;24.20;99.90
2407;DHT22;37709;53.480;9.688;2022-09-01T07:37:49;24.60;99.10
2407;DHT22;37709;53.480;9.688;2022-09-01T07:40:40;25.10;99.10
2407;DHT22;37709;53.480;9.688;2022-09-01T07:43:47;25.50;97.40
2407;DHT22;37709;53.480;9.688;2022-09-01T07:46:38;25.90;95.50
2407;DHT22;37709;53.480;9.688;2022-09-01T07:49:10;26.40;96.40
2407;DHT22;37709;53.480;9.688;2022-09-01T07:51:58;27.00;94.60
2407;DHT22;37709;53.480;9.688;2022-09-01T07:54:30;27.20;91.80
2407;DHT22;37709;53.480;9.688;2022-09-01T07:57:00;28.00;88.30
2407;DHT22;37709;53.480;9.688;2022-09-01T07:59:31;28.30;81.60
2407;DHT22;37709;53.480;9.688;2022-09-01T08:02:12;28.60;76.80
2407;DHT22;37709;53.480;9.688;2022-09-01T08:04:42;28.80;74.70
2407;DHT22;37709;53.480;9.688;2022-09-01T08:07:10;29.00;69.60
2407;DHT22;37709;53.480;9.688;2022-09-01T08:09:42;28.90;67.90
2407;DHT22;37709;53.480;9.688;2022-09-01T08:12:12;29.20;66.20
2407;DHT22;37709;53.480;9.688;2022-09-01T08:14:49;29.70;63.90
2407;DHT22;37709;53.480;9.688;2022-09-01T08:17:40;29.90;61.00
2407;DHT22;37709;53.480;9.688;2022-09-01T08:20:25;30.40;59.20
2407;DHT22;37709;53.480;9.688;2022-09-01T08:23:01;30.70;57.90
2407;DHT22;37709;53.480;9.688;2022-09-01T08:25:35;30.60;56.60
2407;DHT22;37709;53.480;9.688;2022-09-01T08:28:04;31.00;56.70
2407;DHT22;37709;53.480;9.688;2022-09-01T08:30:33;31.40;55.10
2407;DHT22;37709;53.480;9.688;2022-09-01T08:33:02;31.50;53.40
2407;DHT22;37709;53.480;9.688;2022-09-01T08:35:44;31.50;51.50
2407;DHT22;37709;53.480;9.688;2022-09-01T08:38:12;31.50;51.50
2407;DHT22;37709;53.480;9.688;2022-09-01T08:40:41;31.70;51.80
2407;DHT22;37709;53.480;9.688;2022-09-01T08:46:28;32.60;48.90
2407;DHT22;37709;53.480;9.688;2022-09-01T08:49:00;32.90;47.80
2407;DHT22;37709;53.480;9.688;2022-09-01T08:55:40;32.90;47.70
2407;DHT22;37709;53.480;9.688;2022-09-01T08:58:14;34.10;46.80
2407;DHT22;37709;53.480;9.688;2022-09-01T09:00:54;34.40;47.20
2407;DHT22;37709;53.480;9.688;2022-09-01T09:06:55;35.20;42.70
2407;DHT22;37709;53.480;9.688;2022-09-01T09:09:38;35.70;42.40
2407;DHT22;37709;53.480;9.688;2022-09-01T09:12:52;36.10;40.70
2407;DHT22;37709;53.480;9.688;2022-09-01T09:18:56;36.00;40.40
2407;DHT22;37709;53.480;9.688;2022-09-01T09:21:33;35.40;40.40
2407;DHT22;37709;53.480;9.688;2022-09-01T09:24:09;36.10;40.10
2407;DHT22;37709;53.480;9.688;2022-09-01T09:26:37;36.50;38.20
2407;DHT22;37709;53.480;9.688;2022-09-01T09:29:09;36.40;39.10
2407;DHT22;37709;53.480;9.688;2022-09-01T09:31:38;36.90;38.50
2407;DHT22;37709;53.480;9.688;2022-09-01T09:34:35;37.50;39.80
2407;DHT22;37709;53.480;9.688;2022-09-01T09:42:39;39.10;34.90
2407;DHT22;37709;53.480;9.688;2022-09-01T09:47:54;39.10;34.60
2407;DHT22;37709;53.480;9.688;2022-09-01T09:50:48;39.30;34.30
2407;DHT22;37709;53.480;9.688;2022-09-01T09:53:30;39.90;33.00
2407;DHT22;37709;53.480;9.688;2022-09-01T09:58:37;39.90;32.40
2407;DHT22;37709;53.480;9.688;2022-09-01T10:01:09;39.60;31.70
2407;DHT22;37709;53.480;9.688;2022-09-01T10:03:45;39.90;32.50
2407;DHT22;37709;53.480;9.688;2022-09-01T10:06:39;41.10;31.50
2407;DHT22;37709;53.480;9.688;2022-09-01T10:09:15;41.10;30.80
2407;DHT22;37709;53.480;9.688;2022-09-01T10:11:48;41.10;29.90
2407;DHT22;37709;53.480;9.688;2022-09-01T10:14:34;40.10;29.60
2407;DHT22;37709;53.480;9.688;2022-09-01T10:17:24;40.20;30.70
2407;DHT22;37709;53.480;9.688;2022-09-01T10:20:00;40.60;29.90
2407;DHT22;37709;53.480;9.688;2022-09-01T10:22:32;41.10;30.10
2407;DHT22;37709;53.480;9.688;2022-09-01T10:25:01;42.50;30.40
2407;DHT22;37709;53.480;9.688;2022-09-01T10:27:34;43.50;29.30
2407;DHT22;37709;53.480;9.688;2022-09-01T10:30:12;43.10;27.40
2407;DHT22;37709;53.480;9.688;2022-09-01T10:32:50;43.70;28.00
2407;DHT22;37709;53.480;9.688;2022-09-01T10:35:34;44.30;27.70
2407;DHT22;37709;53.480;9.688;2022-09-01T10:38:09;45.10;27.70
2407;DHT22;37709;53.480;9.688;2022-09-01T10:40:41;44.80;26.20
2407;DHT22;37709;53.480;9.688;2022-09-01T10:51:55;43.90;26.30
2407;DHT22;37709;53.480;9.688;2022-09-01T11:06:04;42.70;26.00
2407;DHT22;37709;53.480;9.688;2022-09-01T11:09:06;43.00;25.60
2407;DHT22;37709;53.480;9.688;2022-09-01T11:11:40;44.00;25.80
2407;DHT22;37709;53.480;9.688;2022-09-01T11:14:18;43.80;24.80
2407;DHT22;37709;53.480;9.688;2022-09-01T11:17:22;44.00;25.50
2407;DHT22;37709;53.480;9.688;2022-09-01T11:25:45;45.40;23.80
2407;DHT22;37709;53.480;9.688;2022-09-01T11:28:36;46.60;24.50
2407;DHT22;37709;53.480;9.688;2022-09-01T11:34:09;47.50;22.80
2407;DHT22;37709;53.480;9.688;2022-09-01T11:39:42;45.30;24.10
2407;DHT22;37709;53.480;9.688;2022-09-01T11:45:19;41.60;25.60
2407;DHT22;37709;53.480;9.688;2022-09-01T11:47:54;39.50;28.00
2407;DHT22;37709;53.480;9.688;2022-09-01T11:50:26;42.20;26.90
2407;DHT22;37709;53.480;9.688;2022-09-01T11:52:59;40.50;26.10
2407;DHT22;37709;53.480;9.688;2022-09-01T12:01:09;43.90;24.80
2407;DHT22;37709;53.480;9.688;2022-09-01T12:03:37;44.70;24.40
2407;DHT22;37709;53.480;9.688;2022-09-01T12:06:09;44.10;24.40
2407;DHT22;37709;53.480;9.688;2022-09-01T12:08:41;42.20;24.70
2407;DHT22;37709;53.480;9.688;2022-09-01T12:11:12;38.90;27.00
2407;DHT22;37709;53.480;9.688;2022-09-01T12:13:58;36.90;29.30
2407;DHT22;37709;53.480;9.688;2022-09-01T12:16:32;38.40;28.60
2407;DHT22;37709;53.480;9.688;2022-09-01T12:19:03;41.40;26.30
2407;DHT22;37709;53.480;9.688;2022-09-01T12:21:35;42.50;25.30
2407;DHT22;37709;53.480;9.688;2022-09-01T12:24:17;43.90;24.50
2407;DHT22;37709;53.480;9.688;2022-09-01T12:26:49;41.00;26.60
2407;DHT22;37709;53.480;9.688;2022-09-01T12:29:21;38.70;28.10
2407;DHT22;37709;53.480;9.688;2022-09-01T12:31:51;36.20;29.20
2407;DHT22;37709;53.480;9.688;2022-09-01T12:34:56;34.90;30.50
2407;DHT22;37709;53.480;9.688;2022-09-01T12:37:26;34.10;33.30
2407;DHT22;37709;53.480;9.688;2022-09-01T12:39:56;33.50;34.90
2407;DHT22;37709;53.480;9.688;2022-09-01T12:42:29;35.30;33.80
2407;DHT22;37709;53.480;9.688;2022-09-01T12:45:09;36.50;30.70
2407;DHT22;37709;53.480;9.688;2022-09-01T12:52:50;33.00;34.00
2407;DHT22;37709;53.480;9.688;2022-09-01T12:55:28;31.50;34.70
2407;DHT22;37709;53.480;9.688;2022-09-01T12:58:21;30.40;36.80
2407;DHT22;37709;53.480;9.688;2022-09-01T13:01:02;30.00;38.30
2407;DHT22;37709;53.480;9.688;2022-09-01T13:03:32;30.10;39.30
2407;DHT22;37709;53.480;9.688;2022-09-01T13:06:02;31.10;36.90
2407;DHT22;37709;53.480;9.688;2022-09-01T13:08:32;32.40;34.90
2407;DHT22;37709;53.480;9.688;2022-09-01T13:11:06;35.60;32.30
2407;DHT22;37709;53.480;9.688;2022-09-01T13:13:34;37.70;29.90
2407;DHT22;37709;53.480;9.688;2022-09-01T13:16:03;39.00;29.60
2407;DHT22;37709;53.480;9.688;2022-09-01T13:19:01;40.50;27.50
2407;DHT22;37709;53.480;9.688;2022-09-01T13:21:37;39.20;26.60
2407;DHT22;37709;53.480;9.688;2022-09-01T13:24:09;39.50;28.00
2407;DHT22;37709;53.480;9.688;2022-09-01T13:26:37;40.30;27.90
2407;DHT22;37709;53.480;9.688;2022-09-01T13:29:04;39.70;27.70
2407;DHT22;37709;53.480;9.688;2022-09-01T13:31:32;38.90;28.30
2407;DHT22;37709;53.480;9.688;2022-09-01T13:34:02;39.90;29.10
2407;DHT22;37709;53.480;9.688;2022-09-01T13:36:49;40.40;27.70
2407;DHT22;37709;53.480;9.688;2022-09-01T13:39:19;40.50;27.80
2407;DHT22;37709;53.480;9.688;2022-09-01T13:41:48;39.50;26.90
2407;DHT22;37709;53.480;9.688;2022-09-01T13:44:16;38.30;27.90
2407;DHT22;37709;53.480;9.688;2022-09-01T13:46:45;38.60;28.30
2407;DHT22;37709;53.480;9.688;2022-09-01T13:49:34;39.10;27.20
2407;DHT22;37709;53.480;9.688;2022-09-01T13:52:21;39.90;26.80
2407;DHT22;37709;53.480;9.688;2022-09-01T13:54:50;40.70;27.40
2407;DHT22;37709;53.480;9.688;2022-09-01T13:57:18;40.20;26.70
2407;DHT22;37709;53.480;9.688;2022-09-01T13:59:48;41.00;26.70
2407;DHT22;37709;53.480;9.688;2022-09-01T14:02:15;39.40;27.80
2407;DHT22;37709;53.480;9.688;2022-09-01T14:04:44;40.10;28.40
2407;DHT22;37709;53.480;9.688;2022-09-01T14:07:12;40.20;27.30
2407;DHT22;37709;53.480;9.688;2022-09-01T14:09:42;37.60;28.30
2407;DHT22;37709;53.480;9.688;2022-09-01T14:12:09;35.40;29.80
2407;DHT22;37709;53.480;9.688;2022-09-01T14:14:37;33.80;32.50
2407;DHT22;37709;53.480;9.688;2022-09-01T14:17:24;32.80;34.00
2407;DHT22;37709;53.480;9.688;2022-09-01T14:19:53;31.50;35.20
2407;DHT22;37709;53.480;9.688;2022-09-01T14:22:21;30.50;36.40
2407;DHT22;37709;53.480;9.688;2022-09-01T14:24:49;29.70;37.70
2407;DHT22;37709;53.480;9.688;2022-09-01T14:27:17;29.70;38.70
2407;DHT22;37709;53.480;9.688;2022-09-01T14:29:48;31.80;35.40
2407;DHT22;37709;53.480;9.688;2022-09-01T14:32:21;33.40;33.50
2407;DHT22;37709;53.480;9.688;2022-09-01T14:34:54;33.90;31.90
2407;DHT22;37709;53.480;9.688;2022-09-01T14:37:22;34.50;31.20
2407;DHT22;37709;53.480;9.688;2022-09-01T14:39:52;34.90;30.80
2407;DHT22;37709;53.480;9.688;2022-09-01T14:42:20;34.60;31.00
2407;DHT22;37709;53.480;9.688;2022-09-01T14:45:16;34.40;31.40
2407;DHT22;37709;53.480;9.688;2022-09-01T14:47:46;33.30;31.90
2407;DHT22;37709;53.480;9.688;2022-09-01T14:50:16;33.20;33.50
2407;DHT22;37709;53.480;9.688;2022-09-01T14:52:54;33.40;32.80
2407;DHT22;37709;53.480;9.688;2022-09-01T14:55:23;33.00;32.60
2407;DHT22;37709;53.480;9.688;2022-09-01T14:57:52;33.10;32.10
2407;DHT22;37709;53.480;9.688;2022-09-01T15:00:26;34.00;32.30
2407;DHT22;37709;53.480;9.688;2022-09-01T15:02:55;34.80;33.10
2407;DHT22;37709;53.480;9.688;2022-09-01T15:05:23;35.00;32.60
2407;DHT22;37709;53.480;9.688;2022-09-01T15:07:51;34.90;33.50
2407;DHT22;37709;53.480;9.688;2022-09-01T15:10:22;34.10;33.50
2407;DHT22;37709;53.480;9.688;2022-09-01T15:12:54;33.70;34.80
2407;DHT22;37709;53.480;9.688;2022-09-01T15:15:22;32.80;35.90
2407;DHT22;37709;53.480;9.688;2022-09-01T15:18:14;31.70;36.20
2407;DHT22;37709;53.480;9.688;2022-09-01T15:20:42;30.90;37.40
2407;DHT22;37709;53.480;9.688;2022-09-01T15:23:19;30.40;39.20
2407;DHT22;37709;53.480;9.688;2022-09-01T15:25:49;30.00;39.80
2407;DHT22;37709;53.480;9.688;2022-09-01T15:28:19;28.90;41.10
2407;DHT22;37709;53.480;9.688;2022-09-01T15:30:47;27.70;43.00
2407;DHT22;37709;53.480;9.688;2022-09-01T15:33:14;27.00;44.30
2407;DHT22;37709;53.480;9.688;2022-09-01T15:35:47;26.40;45.60
2407;DHT22;37709;53.480;9.688;2022-09-01T15:38:15;26.00;46.20
2407;DHT22;37709;53.480;9.688;2022-09-01T15:40:45;25.50;47.90
2407;DHT22;37709;53.480;9.688;2022-09-01T15:43:29;25.20;48.20
2407;DHT22;37709;53.480;9.688;2022-09-01T15:45:57;25.20;48.70
2407;DHT22;37709;53.480;9.688;2022-09-01T15:48:26;25.00;49.50
2407;DHT22;37709;53.480;9.688;2022-09-01T15:53:51;24.80;50.40
2407;DHT22;37709;53.480;9.688;2022-09-01T15:56:19;24.90;50.80
2407;DHT22;37709;53.480;9.688;2022-09-01T15:58:48;25.30;49.70
2407;DHT22;37709;53.480;9.688;2022-09-01T16:01:30;25.70;47.80
2407;DHT22;37709;53.480;9.688;2022-09-01T16:03:58;25.90;47.30
2407;DHT22;37709;53.480;9.688;2022-09-01T16:06:27;26.00;46.50
2407;DHT22;37709;53.480;9.688;2022-09-01T16:08:56;26.70;45.00
2407;DHT22;37709;53.480;9.688;2022-09-01T16:11:24;27.10;44.50
2407;DHT22;37709;53.480;9.688;2022-09-01T16:13:52;27.60;44.10
2407;DHT22;37709;53.480;9.688;2022-09-01T16:16:53;27.80;43.10
2407;DHT22;37709;53.480;9.688;2022-09-01T16:19:50;27.80;41.80
2407;DHT22;37709;53.480;9.688;2022-09-01T16:22:21;27.50;43.10
2407;DHT22;37709;53.480;9.688;2022-09-01T16:24:54;26.90;44.40
2407;DHT22;37709;53.480;9.688;2022-09-01T16:27:32;26.70;45.70
2407;DHT22;37709;53.480;9.688;2022-09-01T16:30:12;26.40;46.70
2407;DHT22;37709;53.480;9.688;2022-09-01T16:32:44;25.90;47.50
2407;DHT22;37709;53.480;9.688;2022-09-01T16:35:15;25.60;48.40
2407;DHT22;37709;53.480;9.688;2022-09-01T16:38:08;25.40;48.80
2407;DHT22;37709;53.480;9.688;2022-09-01T16:41:11;25.10;49.70
2407;DHT22;37709;53.480;9.688;2022-09-01T16:46:53;24.70;50.00
2407;DHT22;37709;53.480;9.688;2022-09-01T16:52:23;24.60;50.40
2407;DHT22;37709;53.480;9.688;2022-09-01T16:55:27;24.30;51.80
2407;DHT22;37709;53.480;9.688;2022-09-01T17:06:27;24.10;52.30
2407;DHT22;37709;53.480;9.688;2022-09-01T17:11:44;24.00;54.20
2407;DHT22;37709;53.480;9.688;2022-09-01T17:14:20;23.90;54.30
2407;DHT22;37709;53.480;9.688;2022-09-01T17:17:10;23.60;55.00
2407;DHT22;37709;53.480;9.688;2022-09-01T17:19:39;23.20;55.30
2407;DHT22;37709;53.480;9.688;2022-09-01T17:22:10;23.00;56.00
2407;DHT22;37709;53.480;9.688;2022-09-01T17:24:43;22.90;56.50
2407;DHT22;37709;53.480;9.688;2022-09-01T17:29:49;22.40;57.00
2407;DHT22;37709;53.480;9.688;2022-09-01T17:38:47;21.80;58.20
2407;DHT22;37709;53.480;9.688;2022-09-01T17:47:12;21.10;60.20
2407;DHT22;37709;53.480;9.688;2022-09-01T17:58:34;20.00;62.90
2407;DHT22;37709;53.480;9.688;2022-09-01T18:04:31;19.60;64.20
2407;DHT22;37709;53.480;9.688;2022-09-01T18:09:52;19.20;65.30
2407;DHT22;37709;53.480;9.688;2022-09-01T18:12:26;18.90;66.30
2407;DHT22;37709;53.480;9.688;2022-09-01T18:15:08;18.60;67.10
2407;DHT22;37709;53.480;9.688;2022-09-01T18:18:05;18.40;67.10
2407;DHT22;37709;53.480;9.688;2022-09-01T18:20:41;18.30;67.90
2407;DHT22;37709;53.480;9.688;2022-09-01T18:23:11;18.00;68.60
2407;DHT22;37709;53.480;9.688;2022-09-01T18:26:04;17.80;69.10
2407;DHT22;37709;53.480;9.688;2022-09-01T18:28:31;17.60;70.10
2407;DHT22;37709;53.480;9.688;2022-09-01T18:33:59;17.30;71.00
2407;DHT22;37709;53.480;9.688;2022-09-01T18:36:42;17.10;72.00
2407;DHT22;37709;53.480;9.688;2022-09-01T18:39:23;17.00;72.50
2407;DHT22;37709;53.480;9.688;2022-09-01T18:47:47;16.70;74.90